createdAt,value
2018-07-13T00:02:09.399Z,19.80
2018-07-13T00:07:42.575Z,19.70
2018-07-13T00:10:12.734Z,19.70
2018-07-13T00:12:42.529Z,19.60
2018-07-13T00:15:12.503Z,19.60
2018-07-13T00:17:42.381Z,19.60
2018-07-13T00:20:11.964Z,19.60
2018-07-13T00:22:41.885Z,19.60
2018-07-13T00:25:11.513Z,19.60
2018-07-13T00:27:43.044Z,19.60
2018-07-13T00:30:25.971Z,19.60
2018-07-13T00:32:55.502Z,19.50
2018-07-13T00:35:34.383Z,19.50
2018-07-13T00:38:03.941Z,19.50
2018-07-13T00:40:33.514Z,19.40
2018-07-13T00:43:03.121Z,19.40
2018-07-13T00:45:32.813Z,19.30
2018-07-13T00:48:02.346Z,19.30
2018-07-13T00:50:31.877Z,19.30
2018-07-13T00:53:15.057Z,19.10
2018-07-13T00:55:51.231Z,19.30
2018-07-13T00:58:21.080Z,19.20
2018-07-13T01:00:50.577Z,19.10
2018-07-13T01:03:31.049Z,19.10
2018-07-13T01:06:08.291Z,19.10
2018-07-13T01:08:37.845Z,19.10
2018-07-13T01:11:07.444Z,19.10
2018-07-13T01:13:37.020Z,19.10
2018-07-13T01:16:06.786Z,19.10
2018-07-13T01:18:48.247Z,19.10
2018-07-13T01:21:18.171Z,19.10
2018-07-13T01:23:48.233Z,19.10
2018-07-13T01:26:17.942Z,19.30
2018-07-13T01:29:01.292Z,19.10
2018-07-13T01:31:32.257Z,19.10
2018-07-13T01:34:01.842Z,19.00
2018-07-13T01:36:31.699Z,18.90
2018-07-13T01:39:01.591Z,18.90
2018-07-13T01:41:31.286Z,18.90
2018-07-13T01:44:00.806Z,18.90
2018-07-13T01:46:30.557Z,18.80
2018-07-13T01:49:00.120Z,18.80
2018-07-13T01:51:29.723Z,18.80
2018-07-13T01:53:59.373Z,18.80
2018-07-13T01:56:29.481Z,18.80
2018-07-13T01:58:59.444Z,18.80
2018-07-13T02:01:29.749Z,18.70
2018-07-13T02:03:59.580Z,18.70
2018-07-13T02:06:29.239Z,18.70
2018-07-13T02:08:59.363Z,18.60
2018-07-13T02:11:42.381Z,18.50
2018-07-13T02:14:19.367Z,18.50
2018-07-13T02:16:53.930Z,18.50
2018-07-13T02:19:23.894Z,18.50
2018-07-13T02:21:53.439Z,18.40
2018-07-13T02:24:31.751Z,18.40
2018-07-13T02:27:01.623Z,18.20
2018-07-13T02:29:31.259Z,18.20
2018-07-13T02:32:00.881Z,18.20
2018-07-13T02:34:30.989Z,18.10
2018-07-13T02:37:00.590Z,18.00
2018-07-13T02:39:43.274Z,18.00
2018-07-13T02:42:13.201Z,18.00
2018-07-13T02:44:43.019Z,17.90
2018-07-13T02:47:12.753Z,17.90
2018-07-13T02:49:50.495Z,17.90
2018-07-13T02:52:25.990Z,17.90
2018-07-13T02:54:55.836Z,17.80
2018-07-13T02:57:25.994Z,17.80
2018-07-13T02:59:55.720Z,17.80
2018-07-13T03:02:25.567Z,17.70
2018-07-13T03:04:55.639Z,17.70
2018-07-13T03:07:35.888Z,17.70
2018-07-13T03:10:16.243Z,17.60
2018-07-13T03:12:48.053Z,17.60
2018-07-13T03:15:18.061Z,17.60
2018-07-13T03:17:55.076Z,17.60
2018-07-13T03:20:30.919Z,17.60
2018-07-13T03:23:05.703Z,17.60
2018-07-13T03:25:41.345Z,17.60
2018-07-13T03:28:11.021Z,17.50
2018-07-13T03:30:40.796Z,17.50
2018-07-13T03:33:10.676Z,17.50
2018-07-13T03:35:52.062Z,17.50
2018-07-13T03:38:21.898Z,17.50
2018-07-13T03:40:51.631Z,17.50
2018-07-13T03:43:35.122Z,17.50
2018-07-13T03:46:18.195Z,17.50
2018-07-13T03:48:59.812Z,17.50
2018-07-13T03:51:36.522Z,17.50
2018-07-13T03:54:06.855Z,17.50
2018-07-13T03:56:36.473Z,17.50
2018-07-13T03:59:06.322Z,17.50
2018-07-13T04:01:37.329Z,17.50
2018-07-13T04:04:12.700Z,17.50
2018-07-13T04:06:42.698Z,17.60
2018-07-13T04:09:18.346Z,17.60
2018-07-13T04:11:48.293Z,17.60
2018-07-13T04:14:17.957Z,17.60
2018-07-13T04:16:47.658Z,17.70
2018-07-13T04:19:17.441Z,17.60
2018-07-13T04:21:47.185Z,17.60
2018-07-13T04:24:17.355Z,17.60
2018-07-13T04:26:48.399Z,17.60
2018-07-13T04:29:18.351Z,17.60
2018-07-13T04:34:17.819Z,17.60
2018-07-13T04:36:54.913Z,17.70
2018-07-13T04:39:38.898Z,17.70
2018-07-13T04:42:15.076Z,17.70
2018-07-13T04:44:45.096Z,17.70
2018-07-13T04:47:14.947Z,17.70
2018-07-13T04:49:53.044Z,17.70
2018-07-13T04:52:25.740Z,17.70
2018-07-13T04:55:02.752Z,17.80
2018-07-13T04:57:46.197Z,17.80
2018-07-13T05:00:16.108Z,17.80
2018-07-13T05:02:46.453Z,17.90
2018-07-13T05:05:16.379Z,17.90
2018-07-13T05:07:46.409Z,17.90
2018-07-13T05:10:16.557Z,17.90
2018-07-13T05:12:46.456Z,18.00
2018-07-13T05:15:16.244Z,18.00
2018-07-13T05:17:46.388Z,18.10
2018-07-13T05:20:20.558Z,18.10
2018-07-13T05:22:56.330Z,17.80
2018-07-13T05:25:26.634Z,18.10
2018-07-13T05:27:56.873Z,18.10
2018-07-13T05:30:26.850Z,18.10
2018-07-13T05:33:02.671Z,18.20
2018-07-13T05:35:32.661Z,18.30
2018-07-13T05:38:02.638Z,18.20
2018-07-13T05:40:35.256Z,18.30
2018-07-13T05:43:05.510Z,18.30
2018-07-13T05:45:35.593Z,18.30
2018-07-13T05:48:11.061Z,18.40
2018-07-13T05:50:52.920Z,18.40
2018-07-13T05:53:23.311Z,18.40
2018-07-13T05:55:53.616Z,18.40
2018-07-13T05:58:23.697Z,18.40
2018-07-13T06:00:54.943Z,18.40
2018-07-13T06:03:25.124Z,18.40
2018-07-13T06:05:55.107Z,18.50
2018-07-13T06:08:25.821Z,18.50
2018-07-13T06:10:55.861Z,18.60
2018-07-13T06:13:25.711Z,18.60
2018-07-13T06:16:00.789Z,18.60
2018-07-13T06:18:30.673Z,18.60
2018-07-13T06:21:01.068Z,18.60
2018-07-13T06:23:31.003Z,18.70
2018-07-13T06:26:00.833Z,18.80
2018-07-13T06:28:31.246Z,18.80
2018-07-13T06:31:00.995Z,18.80
2018-07-13T06:33:31.289Z,18.90
2018-07-13T06:36:01.914Z,18.90
2018-07-13T06:38:32.218Z,19.00
2018-07-13T06:41:02.733Z,19.10
2018-07-13T06:43:40.603Z,19.30
2018-07-13T06:46:11.326Z,19.30
2018-07-13T06:48:43.270Z,19.30
2018-07-13T06:51:13.922Z,19.40
2018-07-13T06:53:53.467Z,19.50
2018-07-13T06:56:32.659Z,19.50
2018-07-13T06:59:11.765Z,19.50
2018-07-13T07:01:49.366Z,19.40
2018-07-13T07:04:26.286Z,19.50
2018-07-13T07:06:57.330Z,19.50
2018-07-13T07:09:29.540Z,19.50
2018-07-13T07:12:28.715Z,19.60
2018-07-13T07:14:59.236Z,19.70
2018-07-13T07:17:29.261Z,19.80
2018-07-13T07:20:05.568Z,19.80
2018-07-13T07:22:36.000Z,19.90
2018-07-13T07:25:06.709Z,20.00
2018-07-13T07:27:37.031Z,20.00
2018-07-13T07:30:12.487Z,20.10
2018-07-13T07:32:45.997Z,20.20
2018-07-13T07:35:35.932Z,20.20
2018-07-13T07:38:06.258Z,20.20
2018-07-13T07:40:37.006Z,20.50
2018-07-13T07:43:07.346Z,20.30
2018-07-13T07:45:37.527Z,20.40
2018-07-13T07:48:08.958Z,20.40
2018-07-13T07:50:39.498Z,20.50
2018-07-13T07:53:17.135Z,20.60
2018-07-13T07:55:47.573Z,20.80
2018-07-13T07:58:17.744Z,20.90
2018-07-13T08:00:52.843Z,21.00
2018-07-13T08:03:23.314Z,21.10
2018-07-13T08:05:58.800Z,21.20
2018-07-13T08:08:29.124Z,21.20
2018-07-13T08:10:59.631Z,21.30
2018-07-13T08:13:35.465Z,21.30
2018-07-13T08:16:10.426Z,21.30
2018-07-13T08:18:40.644Z,21.20
2018-07-13T08:21:11.379Z,21.40
2018-07-13T08:23:42.622Z,21.50
2018-07-13T08:26:13.886Z,21.70
2018-07-13T08:28:46.292Z,21.70
2018-07-13T08:31:16.890Z,21.70
2018-07-13T08:33:47.417Z,21.70
2018-07-13T08:36:18.029Z,21.80
2018-07-13T08:38:48.225Z,21.80
2018-07-13T08:41:18.604Z,21.70
2018-07-13T08:43:49.154Z,21.80
2018-07-13T08:46:19.421Z,22.00
2018-07-13T08:48:49.525Z,22.00
2018-07-13T08:51:27.298Z,22.00
2018-07-13T08:53:57.409Z,22.10
2018-07-13T08:56:42.974Z,22.30
2018-07-13T08:59:13.164Z,22.30
2018-07-13T09:01:43.303Z,22.80
2018-07-13T09:04:13.187Z,22.80
2018-07-13T09:06:43.446Z,22.80
2018-07-13T09:09:16.863Z,22.80
2018-07-13T09:11:54.024Z,22.70
2018-07-13T09:14:24.245Z,22.70
2018-07-13T09:16:54.121Z,22.70
2018-07-13T09:19:23.877Z,22.80
2018-07-13T09:21:54.439Z,22.90
2018-07-13T09:24:24.541Z,22.90
2018-07-13T09:26:54.885Z,22.80
2018-07-13T09:29:35.529Z,22.80
2018-07-13T09:32:19.163Z,22.90
2018-07-13T09:34:49.798Z,23.00
2018-07-13T09:37:20.045Z,23.10
2018-07-13T09:39:57.266Z,23.30
2018-07-13T09:42:27.311Z,23.50
2018-07-13T09:44:58.097Z,23.50
2018-07-13T09:47:28.861Z,23.40
2018-07-13T09:49:58.846Z,23.60
2018-07-13T09:52:28.999Z,23.80
2018-07-13T09:55:10.139Z,24.10
2018-07-13T09:57:39.997Z,24.00
2018-07-13T10:00:13.789Z,24.00
2018-07-13T10:02:43.590Z,24.10
2018-07-13T10:05:13.608Z,24.30
2018-07-13T10:07:43.676Z,24.30
2018-07-13T10:10:13.619Z,24.40
2018-07-13T10:12:43.491Z,24.30
2018-07-13T10:15:24.060Z,24.40
2018-07-13T10:17:54.120Z,24.60
2018-07-13T10:20:25.040Z,25.00
2018-07-13T10:22:55.036Z,25.30
2018-07-13T10:25:28.009Z,25.30
2018-07-13T10:28:06.800Z,25.30
2018-07-13T10:30:38.803Z,25.20
2018-07-13T10:33:09.593Z,25.30
2018-07-13T10:35:42.238Z,25.30
2018-07-13T10:38:12.230Z,25.00
2018-07-13T10:40:42.390Z,25.00
2018-07-13T10:43:14.342Z,24.70
2018-07-13T10:45:44.299Z,24.20
2018-07-13T10:48:14.976Z,24.80
2018-07-13T10:50:44.798Z,25.00
2018-07-13T10:53:25.926Z,25.10
2018-07-13T10:55:57.504Z,25.10
2018-07-13T10:58:36.884Z,25.10
2018-07-13T11:01:07.138Z,25.20
2018-07-13T11:03:36.968Z,25.30
2018-07-13T11:06:07.245Z,25.60
2018-07-13T11:08:43.841Z,25.60
2018-07-13T11:11:18.233Z,25.50
2018-07-13T11:13:48.533Z,25.70
2018-07-13T11:16:18.558Z,25.60
2018-07-13T11:18:48.798Z,25.50
2018-07-13T11:21:19.826Z,25.50
2018-07-13T11:23:49.728Z,25.60
2018-07-13T11:26:26.539Z,25.60
2018-07-13T11:28:56.465Z,25.60
2018-07-13T11:31:26.619Z,25.40
2018-07-13T11:34:02.686Z,25.50
2018-07-13T11:36:32.756Z,25.60
2018-07-13T11:39:02.840Z,25.90
2018-07-13T11:41:32.752Z,25.80
2018-07-13T11:44:03.252Z,25.80
2018-07-13T11:46:33.145Z,25.90
2018-07-13T11:49:04.264Z,26.20
2018-07-13T11:51:46.033Z,26.20
2018-07-13T11:54:16.837Z,26.30
2018-07-13T11:56:47.119Z,26.30
2018-07-13T11:59:17.110Z,26.30
2018-07-13T12:01:46.964Z,26.00
2018-07-13T12:04:17.232Z,25.80
2018-07-13T12:06:46.952Z,25.90
2018-07-13T12:09:28.673Z,25.70
2018-07-13T12:11:58.753Z,25.80
2018-07-13T12:14:35.844Z,25.80
2018-07-13T12:17:05.894Z,25.60
2018-07-13T12:19:36.306Z,25.60
2018-07-13T12:22:06.081Z,25.60
2018-07-13T12:24:35.926Z,25.70
2018-07-13T12:27:06.046Z,25.70
2018-07-13T12:29:35.957Z,25.90
2018-07-13T12:32:05.763Z,26.10
2018-07-13T12:37:37.945Z,26.40
2018-07-13T12:40:08.416Z,26.80
2018-07-13T12:42:38.131Z,27.10
2018-07-13T12:45:07.976Z,27.30
2018-07-13T12:47:49.786Z,26.80
2018-07-13T12:50:19.869Z,26.60
2018-07-13T12:52:51.015Z,26.30
2018-07-13T12:55:21.909Z,26.30
2018-07-13T12:57:51.927Z,26.60
2018-07-13T13:00:22.090Z,26.80
2018-07-13T13:02:51.883Z,26.80
2018-07-13T13:05:21.904Z,27.00
2018-07-13T13:07:52.415Z,27.40
2018-07-13T13:10:22.336Z,27.90
2018-07-13T13:13:03.842Z,27.80
2018-07-13T13:15:36.911Z,28.00
2018-07-13T13:18:15.393Z,27.90
2018-07-13T13:20:45.614Z,27.60
2018-07-13T13:23:15.790Z,27.50
2018-07-13T13:25:46.642Z,27.10
2018-07-13T13:28:16.669Z,27.00
2018-07-13T13:30:46.430Z,26.90
2018-07-13T13:33:16.137Z,26.80
2018-07-13T13:35:47.271Z,26.80
2018-07-13T13:38:19.083Z,26.90
2018-07-13T13:40:53.835Z,27.00
2018-07-13T13:43:24.237Z,27.20
2018-07-13T13:45:54.212Z,27.10
2018-07-13T13:48:23.839Z,27.60
2018-07-13T13:50:58.191Z,27.80
2018-07-13T13:53:27.902Z,27.70
2018-07-13T13:55:57.817Z,27.30
2018-07-13T13:58:37.554Z,26.90
2018-07-13T14:01:08.372Z,27.10
2018-07-13T14:03:40.026Z,27.30
2018-07-13T14:06:10.091Z,27.10
2018-07-13T14:08:48.983Z,27.10
2018-07-13T14:11:19.233Z,27.40
2018-07-13T14:13:49.754Z,28.00
2018-07-13T14:16:19.648Z,28.10
2018-07-13T14:18:49.425Z,28.00
2018-07-13T14:21:19.244Z,28.30
2018-07-13T14:23:49.706Z,28.10
2018-07-13T14:26:19.721Z,27.60
2018-07-13T14:28:49.437Z,27.20
2018-07-13T14:31:19.158Z,26.80
2018-07-13T14:33:49.413Z,26.70
2018-07-13T14:36:19.329Z,27.10
2018-07-13T14:38:49.311Z,27.10
2018-07-13T14:41:22.377Z,27.50
2018-07-13T14:43:52.157Z,27.50
2018-07-13T14:47:24.289Z,27.70
2018-07-13T14:49:53.987Z,27.80
2018-07-13T14:55:12.317Z,27.60
2018-07-13T14:57:42.498Z,27.80
2018-07-13T15:00:13.443Z,27.70
2018-07-13T15:02:43.343Z,27.70
2018-07-13T15:05:14.258Z,27.50
2018-07-13T15:07:57.079Z,27.70
2018-07-13T15:10:34.555Z,27.80
2018-07-13T15:13:04.281Z,27.70
2018-07-13T15:15:38.654Z,27.50
2018-07-13T15:18:11.930Z,27.50
2018-07-13T15:20:50.998Z,27.80
2018-07-13T15:23:25.946Z,28.00
2018-07-13T15:26:02.612Z,28.00
2018-07-13T15:28:37.569Z,27.90
2018-07-13T16:09:46.707Z,28.00
2018-07-13T16:12:17.128Z,27.50
2018-07-13T16:14:47.612Z,27.40
2018-07-13T16:17:17.886Z,27.50
2018-07-13T16:19:54.556Z,27.40
2018-07-13T16:22:25.122Z,27.20
2018-07-13T16:24:55.184Z,27.10
2018-07-13T16:27:25.973Z,27.10
2018-07-13T16:29:56.208Z,27.20
2018-07-13T16:32:26.164Z,27.20
2018-07-13T16:34:56.692Z,27.10
2018-07-13T16:37:40.902Z,27.10
2018-07-13T16:40:24.306Z,27.00
2018-07-13T16:43:32.956Z,27.00
2018-07-13T16:49:40.533Z,26.80
2018-07-13T16:52:28.842Z,26.70
2018-07-13T16:58:32.156Z,26.70
2018-07-13T17:04:31.097Z,26.80
2018-07-13T17:07:00.720Z,26.80
2018-07-13T17:16:13.180Z,27.00
2018-07-13T17:18:57.147Z,27.00
2018-07-13T17:24:52.696Z,27.10
2018-07-13T17:27:37.314Z,27.00
2018-07-13T17:30:09.119Z,27.00
2018-07-13T17:33:06.912Z,26.90
2018-07-13T17:35:40.269Z,26.90
2018-07-13T17:38:48.709Z,26.80
2018-07-13T17:41:31.844Z,26.70
2018-07-13T17:44:16.382Z,26.70
2018-07-13T17:53:43.142Z,26.60
2018-07-13T17:56:14.339Z,26.60
2018-07-13T18:02:35.199Z,26.50
2018-07-13T18:05:19.373Z,26.50
2018-07-13T18:08:14.278Z,26.40
2018-07-13T18:11:01.539Z,26.40
2018-07-13T18:14:01.413Z,26.40
2018-07-13T18:16:32.251Z,26.40
2018-07-13T18:22:38.747Z,26.40
2018-07-13T18:28:43.415Z,26.20
2018-07-13T18:38:21.071Z,26.10
2018-07-13T18:44:51.545Z,25.80
2018-07-13T19:01:12.065Z,25.60
2018-07-13T19:04:24.434Z,25.60
2018-07-13T19:14:09.794Z,25.40
2018-07-13T19:16:45.710Z,25.50
2018-07-13T19:19:31.717Z,25.20
2018-07-13T19:22:31.079Z,25.10
2018-07-13T19:32:07.746Z,24.80
2018-07-13T19:38:15.106Z,24.60
2018-07-13T19:54:46.719Z,24.40
2018-07-13T19:57:29.609Z,24.40
2018-07-13T20:00:16.930Z,24.30
2018-07-13T20:06:02.863Z,24.30
2018-07-13T20:11:55.490Z,24.20
2018-07-13T20:14:37.232Z,24.20
2018-07-13T20:17:08.755Z,24.20
2018-07-13T20:23:02.307Z,24.10
2018-07-13T20:25:51.195Z,24.00
2018-07-13T20:45:44.383Z,23.40
2018-07-13T20:54:57.290Z,23.00
2018-07-13T21:10:54.100Z,22.60
2018-07-13T21:16:50.926Z,22.50
2018-07-13T21:26:15.332Z,22.40
2018-07-13T21:36:08.416Z,22.20
2018-07-13T21:38:46.756Z,22.20
2018-07-13T21:44:33.848Z,22.00
2018-07-13T21:50:43.948Z,23.00
2018-07-13T22:09:21.700Z,21.40
2018-07-13T22:12:29.921Z,21.40
2018-07-13T22:21:32.751Z,21.40
2018-07-13T22:30:43.203Z,21.40
2018-07-13T22:33:42.322Z,21.40
2018-07-13T22:36:53.901Z,21.30
2018-07-13T22:39:52.086Z,21.30
2018-07-13T22:45:31.521Z,21.30
2018-07-13T22:48:16.088Z,21.20
2018-07-13T22:50:46.449Z,21.10
2018-07-13T22:53:16.193Z,21.10
2018-07-13T22:55:58.530Z,21.10
2018-07-13T22:58:28.373Z,21.20
2018-07-13T23:00:59.807Z,21.30
2018-07-13T23:03:48.160Z,21.10
2018-07-13T23:06:19.440Z,21.30
2018-07-13T23:09:00.669Z,21.30
2018-07-13T23:12:02.840Z,21.20
2018-07-13T23:17:54.374Z,21.30
2018-07-13T23:20:51.780Z,20.90
2018-07-13T23:26:56.112Z,21.20
2018-07-13T23:29:40.435Z,21.20
2018-07-13T23:32:27.387Z,21.30
2018-07-13T23:35:06.925Z,21.30
2018-07-13T23:37:51.073Z,21.30
2018-07-13T23:59:42.793Z,20.90
